Time;durP1;ratioP1;P1;durP2;ratioP2;P2;SDS_P1;SDS_P2;PMS_P1;PMS_P2;Temp;Humidity;BMP_temperature;BMP_pressure;BME280_temperature;BME280_humidity;BME280_pressure;Samples;Min_cycle;Max_cycle;Signal;HPM_P1;HPM_P2
2023/12/15 00:02:02;;;;;;;216.85;139.30;;;;;;;11.52;nan;99187.13;5065968;28;20503;-65
2023/12/15 00:04:32;;;;;;;204.80;136.30;;;;;;;11.16;nan;99195.03;5065730;28;20073;-68
2023/12/15 00:07:01;;;;;;;203.85;141.80;;;;;;;11.07;nan;99196.16;5047105;28;20088;-70
2023/12/15 00:09:31;;;;;;;204.95;138.32;;;;;;;11.08;nan;99196.97;5040065;28;20079;-68
2023/12/15 00:12:00;;;;;;;212.05;145.73;;;;;;;11.09;nan;99194.16;5072004;28;20197;-68
2023/12/15 00:14:30;;;;;;;212.45;141.85;;;;;;;11.23;nan;99189.84;5085410;28;20131;-68
2023/12/15 00:16:59;;;;;;;222.43;147.23;;;;;;;11.32;nan;99188.75;5065917;28;20059;-68
2023/12/15 00:19:28;;;;;;;222.52;149.23;;;;;;;11.38;nan;99193.28;5045144;28;20053;-68
2023/12/15 00:21:58;;;;;;;215.35;143.50;;;;;;;11.46;nan;99195.81;5046574;28;20056;-68
2023/12/15 00:24:27;;;;;;;213.75;146.27;;;;;;;11.18;nan;99195.69;5049858;28;20063;-68
2023/12/15 00:26:58;;;;;;;220.38;148.82;;;;;;;11.07;nan;99196.16;5072677;28;20044;-67
2023/12/15 00:29:27;;;;;;;228.55;151.68;;;;;;;11.26;nan;99194.78;5066073;28;20057;-67
2023/12/15 00:31:57;;;;;;;229.68;153.05;;;;;;;11.33;nan;99192.22;5059437;28;20060;-66
2023/12/15 00:34:27;;;;;;;222.65;150.35;;;;;;;11.15;nan;99198.69;5026724;28;20038;-67
2023/12/15 00:36:56;;;;;;;223.93;151.98;;;;;;;11.11;nan;99208.03;5046720;28;20053;-67
2023/12/15 00:39:25;;;;;;;229.15;153.00;;;;;;;11.06;nan;99217.56;5050543;28;20113;-67
2023/12/15 00:41:55;;;;;;;237.90;157.43;;;;;;;10.92;nan;99228.97;5066446;28;20083;-67
2023/12/15 00:44:24;;;;;;;228.77;155.77;;;;;;;10.90;nan;99217.72;5061480;28;20049;-68
2023/12/15 00:46:54;;;;;;;225.07;153.10;;;;;;;11.07;nan;99221.81;5046091;28;20052;-67
2023/12/15 00:49:30;;;;;;;244.45;159.02;;;;;;;10.92;nan;99221.84;5057536;28;20036;-67
2023/12/15 00:52:13;;;;;;;238.00;155.63;;;;;;;10.78;nan;99235.88;5062885;28;20109;-67
2023/12/15 00:54:54;;;;;;;233.50;157.02;;;;;;;10.80;nan;99236.50;5064188;28;20048;-69
2023/12/15 00:57:24;;;;;;;232.40;157.18;;;;;;;10.70;nan;99236.81;5064934;28;20077;-68
2023/12/15 00:59:53;;;;;;;230.32;155.75;;;;;;;10.63;nan;99235.84;5065396;28;20118;-69
2023/12/15 01:02:22;;;;;;;238.15;156.60;;;;;;;10.54;nan;99239.56;5063350;28;20052;-68
2023/12/15 01:04:52;;;;;;;242.50;158.30;;;;;;;10.66;nan;99250.59;5066033;28;20045;-68
2023/12/15 01:07:23;;;;;;;234.15;157.15;;;;;;;10.74;nan;99253.97;5058329;28;20049;-68
2023/12/15 01:09:52;;;;;;;215.95;146.80;;;;;;;10.77;nan;99260.72;5056010;28;20524;-69
2023/12/15 01:12:22;;;;;;;240.75;155.55;;;;;;;10.45;nan;99261.81;5065563;28;20044;-68
2023/12/15 01:14:51;;;;;;;231.70;148.88;;;;;;;10.36;nan;99265.53;5064307;28;20163;-68
2023/12/15 01:17:21;;;;;;;235.13;151.13;;;;;;;10.25;nan;99265.97;5063779;28;20040;-68
2023/12/15 01:19:51;;;;;;;230.10;150.38;;;;;;;10.11;nan;99271.97;5063793;28;20072;-69
2023/12/15 01:22:20;;;;;;;227.25;151.80;;;;;;;10.05;nan;99275.31;5063687;28;20379;-68
2023/12/15 01:24:49;;;;;;;253.65;157.73;;;;;;;10.10;nan;99279.09;5062899;28;20045;-68
2023/12/15 01:27:19;;;;;;;266.73;170.63;;;;;;;10.14;nan;99282.22;5065817;28;20131;-68
2023/12/15 01:29:48;;;;;;;241.15;161.95;;;;;;;10.33;nan;99276.50;5065902;28;20064;-68
2023/12/15 01:32:18;;;;;;;273.90;174.50;;;;;;;10.55;nan;99283.59;5065407;28;20056;-67
2023/12/15 01:34:47;;;;;;;264.27;170.73;;;;;;;10.49;nan;99283.50;5065531;28;20052;-67
2023/12/15 01:37:17;;;;;;;289.05;179.43;;;;;;;10.34;nan;99278.97;5065450;28;20357;-68
2023/12/15 01:39:46;;;;;;;287.75;180.75;;;;;;;10.56;nan;99271.19;5065565;28;20052;-68
2023/12/15 01:42:16;;;;;;;279.92;179.88;;;;;;;10.44;nan;99277.91;5061760;28;20059;-68
2023/12/15 01:44:45;;;;;;;292.52;182.38;;;;;;;10.33;nan;99276.50;5058381;28;20140;-68
2023/12/15 01:47:18;;;;;;;283.38;184.35;;;;;;;10.28;nan;99278.84;5065091;28;20052;-68
2023/12/15 01:49:47;;;;;;;305.00;196.70;;;;;;;10.30;nan;99284.81;5065744;28;20049;-68
2023/12/15 01:52:17;;;;;;;307.98;190.15;;;;;;;10.42;nan;99278.09;5064922;28;20055;-68
2023/12/15 01:54:46;;;;;;;290.95;187.40;;;;;;;10.54;nan;99283.78;5065372;28;20472;-68
2023/12/15 01:57:16;;;;;;;303.23;192.38;;;;;;;10.49;nan;99284.31;5065052;28;20048;-68
2023/12/15 01:59:49;;;;;;;281.75;182.88;;;;;;;10.43;nan;99289.50;5065226;28;20645;-68
2023/12/15 02:02:18;;;;;;;291.50;186.68;;;;;;;10.42;nan;99291.31;5061260;28;20040;-68
2023/12/15 02:04:49;;;;;;;288.02;187.63;;;;;;;10.61;nan;99290.03;5047546;28;20107;-68
2023/12/15 02:07:19;;;;;;;292.48;187.90;;;;;;;10.43;nan;99277.09;5045586;28;20044;-68
2023/12/15 02:09:49;;;;;;;295.02;189.15;;;;;;;10.57;nan;99292.22;5058880;28;20045;-69
2023/12/15 02:12:21;;;;;;;300.02;197.95;;;;;;;10.59;nan;99305.25;5060882;28;20056;-67
2023/12/15 02:14:51;;;;;;;300.33;193.45;;;;;;;10.58;nan;99303.59;5057762;28;20056;-66
2023/12/15 02:17:21;;;;;;;307.75;201.00;;;;;;;10.86;nan;99307.34;5060615;28;20037;-68
2023/12/15 02:19:50;;;;;;;315.50;204.05;;;;;;;10.79;nan;99303.78;5063069;28;20056;-68
2023/12/15 02:22:26;;;;;;;295.60;192.32;;;;;;;10.66;nan;99306.22;5058583;28;20069;-68
2023/12/15 02:24:56;;;;;;;289.80;190.48;;;;;;;10.90;nan;99308.63;5057259;28;20036;-68
2023/12/15 02:27:25;;;;;;;296.42;188.30;;;;;;;10.99;nan;99304.06;5060055;28;20106;-68
2023/12/15 02:29:55;;;;;;;311.73;198.90;;;;;;;11.15;nan;99306.59;5062177;28;20654;-68
2023/12/15 02:32:25;;;;;;;301.45;197.57;;;;;;;11.20;nan;99304.19;5061004;28;20048;-68
2023/12/15 02:34:54;;;;;;;299.80;196.38;;;;;;;11.25;nan;99307.13;5062524;28;20063;-68
2023/12/15 02:37:24;;;;;;;302.55;196.23;;;;;;;11.26;nan;99306.94;5055014;28;20052;-68
2023/12/15 02:39:53;;;;;;;323.15;201.55;;;;;;;11.53;nan;99302.84;5061011;28;20052;-68
2023/12/15 02:42:23;;;;;;;314.92;209.77;;;;;;;11.50;nan;99305.88;5089561;28;20649;-67
2023/12/15 02:44:52;;;;;;;324.40;210.98;;;;;;;11.44;nan;99303.94;5063809;28;20060;-68
2023/12/15 02:47:22;;;;;;;313.67;206.43;;;;;;;11.60;nan;99306.41;5055110;28;20052;-68
2023/12/15 02:49:51;;;;;;;315.45;211.43;;;;;;;11.81;nan;99311.00;5062396;28;20064;-68
2023/12/15 02:52:21;;;;;;;323.42;213.57;;;;;;;12.03;nan;99320.66;5063136;28;20037;-68
2023/12/15 02:54:51;;;;;;;328.33;215.52;;;;;;;12.07;nan;99318.44;5065765;28;20074;-69
2023/12/15 02:57:20;;;;;;;324.92;215.25;;;;;;;12.12;nan;99324.03;5068841;28;20054;-68
2023/12/15 02:59:49;;;;;;;327.08;212.68;;;;;;;12.39;nan;99339.22;5065621;28;20056;-68
2023/12/15 03:02:19;;;;;;;314.73;209.80;;;;;;;12.71;nan;99339.75;5063582;28;20047;-68
2023/12/15 03:04:49;;;;;;;320.55;212.82;;;;;;;12.89;nan;99350.75;5056311;28;20049;-68
2023/12/15 03:07:19;;;;;;;311.13;211.75;;;;;;;13.10;nan;99355.22;5063303;28;20384;-68
2023/12/15 03:09:48;;;;;;;312.83;207.50;;;;;;;13.06;nan;99358.25;5065774;28;20048;-69
2023/12/15 03:12:18;;;;;;;319.42;209.20;;;;;;;12.92;nan;99345.84;5057741;28;20463;-69
2023/12/15 03:14:47;;;;;;;307.38;209.15;;;;;;;12.96;nan;99354.31;5061789;28;20055;-70
2023/12/15 03:17:17;;;;;;;304.65;202.10;;;;;;;13.04;nan;99356.81;5061785;28;20052;-70
2023/12/15 03:19:46;;;;;;;301.45;198.60;;;;;;;13.04;nan;99356.81;5066743;28;20133;-69
2023/12/15 03:22:15;;;;;;;295.25;198.60;;;;;;;13.10;nan;99371.19;5060952;28;20058;-69
2023/12/15 03:24:45;;;;;;;296.10;200.90;;;;;;;13.16;nan;99362.44;5066611;28;20063;-70
2023/12/15 03:27:14;;;;;;;307.08;196.43;;;;;;;13.34;nan;99374.25;5083096;28;20461;-69
2023/12/15 03:29:44;;;;;;;288.55;196.88;;;;;;;13.42;nan;99370.63;5047515;28;20041;-68
2023/12/15 03:32:13;;;;;;;294.02;193.45;;;;;;;13.76;nan;99372.50;5052038;28;20040;-68
2023/12/15 03:34:42;;;;;;;302.70;202.20;;;;;;;13.98;nan;99391.88;5066383;28;20055;-68
2023/12/15 03:37:12;;;;;;;285.65;195.82;;;;;;;14.26;nan;99398.75;5057054;28;20048;-68
2023/12/15 03:39:41;;;;;;;291.08;195.77;;;;;;;14.61;nan;99396.00;5047378;28;20059;-68
2023/12/15 03:42:12;;;;;;;286.17;194.23;;;;;;;14.88;nan;99413.72;5057752;28;20044;-68
2023/12/15 03:44:41;;;;;;;296.95;197.45;;;;;;;14.76;nan;99407.34;5063449;28;20076;-68
2023/12/15 03:47:10;;;;;;;279.48;198.15;;;;;;;14.85;nan;99406.13;5065633;28;20383;-69
2023/12/15 03:49:40;;;;;;;291.25;194.95;;;;;;;14.70;nan;99408.13;5063624;28;20055;-68
2023/12/15 03:52:09;;;;;;;285.02;192.50;;;;;;;14.64;nan;99415.13;5056474;28;20058;-68
2023/12/15 03:54:39;;;;;;;309.02;201.93;;;;;;;14.59;nan;99422.06;5086837;28;20133;-68
2023/12/15 03:57:08;;;;;;;305.92;201.63;;;;;;;14.56;nan;99423.28;5059023;28;20419;-68
2023/12/15 03:59:40;;;;;;;307.08;201.60;;;;;;;14.64;nan;99430.28;5065831;28;20133;-68
2023/12/15 04:02:15;;;;;;;305.92;198.02;;;;;;;14.66;nan;99437.06;5063313;28;20045;-69
2023/12/15 04:04:44;;;;;;;296.08;200.82;;;;;;;14.92;nan;99440.81;5065812;28;20103;-69
2023/12/15 04:07:13;;;;;;;293.77;196.60;;;;;;;14.72;nan;99443.44;5061881;28;20044;-69
2023/12/15 04:09:43;;;;;;;300.25;205.40;;;;;;;14.70;nan;99440.13;5066904;28;20082;-69
2023/12/15 04:12:12;;;;;;;293.85;198.50;;;;;;;14.79;nan;99444.25;5065059;28;20063;-69
2023/12/15 04:14:42;;;;;;;296.15;192.57;;;;;;;14.62;nan;99456.31;5066997;28;20036;-69
2023/12/15 04:17:12;;;;;;;289.42;193.82;;;;;;;14.75;nan;99451.03;5052984;28;20126;-69
2023/12/15 04:19:42;;;;;;;275.88;185.50;;;;;;;14.89;nan;99463.38;5060121;28;20044;-69
2023/12/15 04:22:11;;;;;;;285.60;186.00;;;;;;;14.82;nan;99459.88;5058852;28;20388;-69
2023/12/15 04:24:42;;;;;;;283.52;186.98;;;;;;;14.86;nan;99458.47;5065704;28;20048;-69
2023/12/15 04:27:12;;;;;;;274.52;180.93;;;;;;;15.07;nan;99466.28;5065351;28;20048;-69
2023/12/15 04:29:41;;;;;;;271.17;177.15;;;;;;;15.06;nan;99469.97;5066604;28;20040;-69
2023/12/15 04:32:12;;;;;;;271.83;181.45;;;;;;;14.84;nan;99466.66;5061512;28;20059;-69
2023/12/15 04:34:42;;;;;;;266.67;175.88;;;;;;;15.02;nan;99466.06;5051259;28;20049;-70
2023/12/15 04:37:11;;;;;;;268.30;173.63;;;;;;;15.38;nan;99460.38;5059117;28;20044;-69
2023/12/15 04:39:40;;;;;;;278.73;176.15;;;;;;;15.48;nan;99463.47;5063205;28;20155;-69
2023/12/15 04:42:09;;;;;;;265.58;180.00;;;;;;;15.54;nan;99465.31;5062842;28;20059;-69
2023/12/15 04:44:40;;;;;;;296.63;178.00;;;;;;;15.93;nan;99472.47;5065848;28;20128;-71
2023/12/15 04:47:09;;;;;;;260.80;172.75;;;;;;;16.32;nan;99478.78;5079640;28;20064;-71
2023/12/15 04:49:39;;;;;;;255.27;171.38;;;;;;;16.40;nan;99473.19;5061728;28;20091;-71
2023/12/15 04:52:08;;;;;;;252.32;169.35;;;;;;;16.25;nan;99478.78;5056859;28;20595;-70
2023/12/15 04:54:36;;;;;;;254.25;172.25;;;;;;;16.17;nan;99481.69;5057350;28;20698;-70
2023/12/15 04:57:05;;;;;;;257.55;169.15;;;;;;;16.38;nan;99480.59;5061579;28;20044;-71
2023/12/15 04:59:39;;;;;;;265.50;175.38;;;;;;;16.57;nan;99477.03;5065929;28;20048;-71
2023/12/15 05:02:08;;;;;;;278.00;176.90;;;;;;;16.45;nan;99481.41;5064837;28;20044;-70
2023/12/15 05:04:39;;;;;;;258.42;169.48;;;;;;;16.42;nan;99479.97;5067989;28;20141;-70
2023/12/15 05:07:09;;;;;;;251.45;165.02;;;;;;;16.48;nan;99486.34;5068228;28;20056;-70
2023/12/15 05:09:38;;;;;;;257.40;167.60;;;;;;;16.65;nan;99478.69;5061620;28;20640;-70
2023/12/15 05:12:08;;;;;;;248.55;159.95;;;;;;;16.93;nan;99477.31;5061298;28;20553;-68
2023/12/15 05:14:38;;;;;;;251.75;158.10;;;;;;;16.72;nan;99474.97;5059098;28;20048;-72
2023/12/15 05:17:07;;;;;;;237.85;155.52;;;;;;;16.72;nan;99482.16;5060668;28;20766;-70
2023/12/15 05:19:36;;;;;;;220.40;145.20;;;;;;;17.02;nan;99478.72;5057489;28;20056;-70
2023/12/15 05:22:05;;;;;;;223.45;140.80;;;;;;;16.81;nan;99479.03;5060407;28;20045;-72
2023/12/15 05:24:34;;;;;;;217.75;142.30;;;;;;;17.00;nan;99478.09;5059589;28;20460;-70
2023/12/15 05:27:03;;;;;;;206.35;136.35;;;;;;;16.90;nan;99471.59;5062933;28;20072;-71
2023/12/15 05:29:32;;;;;;;197.00;135.10;;;;;;;16.92;nan;99483.69;5062177;28;20049;-72
2023/12/15 05:32:01;;;;;;;208.18;134.68;;;;;;;16.87;nan;99477.34;5056255;28;20036;-70
2023/12/15 05:34:30;;;;;;;197.50;131.13;;;;;;;17.14;nan;99469.97;5061630;28;20128;-72
2023/12/15 05:36:59;;;;;;;192.45;133.55;;;;;;;17.22;nan;99469.72;5061077;28;20048;-70
2023/12/15 05:39:28;;;;;;;223.02;145.15;;;;;;;17.53;nan;99473.19;5058183;28;20064;-72
2023/12/15 05:41:57;;;;;;;224.30;147.18;;;;;;;17.68;nan;99474.75;5060189;28;20040;-72
2023/12/15 05:44:26;;;;;;;216.23;148.40;;;;;;;17.61;nan;99471.34;5058976;28;20486;-71
2023/12/15 05:46:55;;;;;;;222.55;148.27;;;;;;;17.86;nan;99459.56;5060539;28;20558;-71
2023/12/15 05:49:24;;;;;;;219.77;151.50;;;;;;;18.05;nan;99457.72;5062212;28;20741;-70
2023/12/15 05:51:53;;;;;;;214.23;147.57;;;;;;;17.97;nan;99468.72;5059094;28;20045;-69
2023/12/15 05:54:22;;;;;;;222.85;149.38;;;;;;;18.06;nan;99474.59;5057616;28;20056;-70
2023/12/15 05:56:50;;;;;;;229.43;151.48;;;;;;;17.94;nan;99471.84;5060158;28;20547;-70
2023/12/15 05:59:19;;;;;;;173.25;117.45;;;;;;;17.88;nan;99468.19;5056014;28;20048;-71
2023/12/15 06:01:48;;;;;;;157.25;112.47;;;;;;;18.00;nan;99457.56;5058620;28;20052;-71
2023/12/15 06:04:17;;;;;;;166.05;117.28;;;;;;;18.38;nan;99460.03;5057719;28;20757;-73
2023/12/15 06:06:46;;;;;;;162.70;112.47;;;;;;;18.48;nan;99454.13;5056657;28;20044;-70
2023/12/15 06:09:15;;;;;;;169.35;111.22;;;;;;;18.20;nan;99463.53;5060306;28;20788;-72
2023/12/15 06:11:44;;;;;;;161.07;111.85;;;;;;;18.62;nan;99461.84;5030905;28;20121;-74
2023/12/15 06:14:13;;;;;;;169.27;114.40;;;;;;;18.79;nan;99462.03;5039800;28;21047;-72
2023/12/15 06:16:42;;;;;;;165.15;117.65;;;;;;;18.84;nan;99459.47;5049519;28;20330;-72
2023/12/15 06:19:11;;;;;;;166.18;117.80;;;;;;;18.82;nan;99459.69;5053619;28;20150;-70
2023/12/15 06:21:40;;;;;;;150.77;103.22;;;;;;;18.67;nan;99458.47;5051805;28;20151;-72
2023/12/15 06:24:09;;;;;;;138.95;93.82;;;;;;;18.55;nan;99449.53;5068330;28;20068;-72
2023/12/15 06:26:38;;;;;;;127.80;91.13;;;;;;;18.68;nan;99455.56;5069335;28;20075;-72
2023/12/15 06:29:07;;;;;;;140.27;94.75;;;;;;;19.00;nan;99455.31;5072892;28;20041;-72
2023/12/15 06:31:35;;;;;;;144.55;95.82;;;;;;;19.01;nan;99455.13;5074020;28;20143;-70
2023/12/15 06:34:05;;;;;;;157.20;105.40;;;;;;;18.93;nan;99442.00;5072224;28;20521;-74
2023/12/15 06:36:33;;;;;;;156.70;101.72;;;;;;;18.98;nan;99446.69;5075655;28;20052;-73
2023/12/15 06:39:02;;;;;;;142.90;97.47;;;;;;;19.03;nan;99453.00;5066178;28;20048;-75
2023/12/15 06:41:31;;;;;;;146.57;100.03;;;;;;;19.14;nan;99451.41;5068532;28;20105;-74
2023/12/15 06:44:01;;;;;;;138.90;95.75;;;;;;;19.08;nan;99444.25;5073125;28;20147;-73
2023/12/15 06:46:29;;;;;;;154.43;104.13;;;;;;;19.32;nan;99437.91;5060440;28;20052;-73
2023/12/15 06:49:00;;;;;;;144.82;97.18;;;;;;;19.41;nan;99444.59;5065883;28;20048;-73
2023/12/15 06:51:29;;;;;;;131.90;89.05;;;;;;;19.24;nan;99433.69;5064032;28;20059;-74
2023/12/15 06:53:58;;;;;;;127.60;88.88;;;;;;;19.33;nan;99431.50;5050975;28;20074;-72
2023/12/15 06:56:27;;;;;;;135.80;91.55;;;;;;;19.63;nan;99437.63;5069925;28;20045;-73
2023/12/15 06:58:56;;;;;;;143.70;90.43;;;;;;;19.79;nan;99428.03;5060966;28;20072;-73
2023/12/15 07:01:25;;;;;;;121.93;83.88;;;;;;;20.13;nan;99429.09;5073396;28;20694;-73
2023/12/15 07:03:54;;;;;;;107.50;76.40;;;;;;;20.00;nan;99418.56;5076197;28;20052;-74
2023/12/15 07:06:23;;;;;;;89.43;61.90;;;;;;;20.08;nan;99416.34;5070990;28;20301;-73
2023/12/15 07:08:54;;;;;;;64.45;43.20;;;;;;;20.00;nan;99418.56;5067026;28;20069;-74
2023/12/15 07:11:23;;;;;;;72.45;49.90;;;;;;;19.65;nan;99405.94;5063764;28;20604;-73
2023/12/15 07:13:52;;;;;;;63.67;42.88;;;;;;;19.83;nan;99405.00;5058916;28;20888;-73
2023/12/15 07:16:21;;;;;;;66.32;44.30;;;;;;;20.10;nan;99395.38;5066059;28;20127;-74
2023/12/15 07:18:50;;;;;;;67.05;46.35;;;;;;;20.12;nan;99397.84;5067998;28;20131;-73
2023/12/15 07:21:19;;;;;;;75.68;51.60;;;;;;;20.17;nan;99404.16;5057375;28;20555;-72
2023/12/15 07:23:48;;;;;;;78.78;55.58;;;;;;;20.04;nan;99400.91;5067534;28;20228;-71
2023/12/15 07:26:17;;;;;;;84.63;57.92;;;;;;;20.28;nan;99398.97;5074656;28;20047;-69
2023/12/15 07:28:46;;;;;;;90.13;62.30;;;;;;;20.18;nan;99404.94;5073496;28;20048;-71
2023/12/15 07:31:15;;;;;;;103.53;66.95;;;;;;;20.40;nan;99391.75;5052568;28;20131;-72
2023/12/15 07:33:44;;;;;;;98.65;65.55;;;;;;;20.45;nan;99384.56;5055800;28;20057;-72
2023/12/15 07:36:13;;;;;;;92.53;62.17;;;;;;;20.37;nan;99378.75;5061714;28;20059;-71
2023/12/15 07:38:42;;;;;;;95.38;62.08;;;;;;;20.16;nan;99377.50;5066931;28;20114;-70
2023/12/15 07:41:11;;;;;;;96.03;65.85;;;;;;;19.99;nan;99372.03;5055365;28;20049;-72
2023/12/15 07:43:40;;;;;;;99.53;67.40;;;;;;;20.11;nan;99355.88;5062507;28;20045;-69
2023/12/15 07:46:19;;;;;;;105.88;72.47;;;;;;;20.15;nan;99354.34;5055562;28;20048;-69
2023/12/15 07:48:48;;;;;;;108.60;70.70;;;;;;;20.32;nan;99363.31;5061635;28;20044;-69
2023/12/15 07:51:21;;;;;;;105.13;72.15;;;;;;;20.31;nan;99356.31;5064845;28;20098;-67
2023/12/15 07:53:50;;;;;;;112.15;72.10;;;;;;;20.55;nan;99359.72;5070142;28;20481;-69
2023/12/15 07:56:23;;;;;;;117.03;75.80;;;;;;;20.48;nan;99351.81;5073560;28;20075;-70
2023/12/15 07:58:53;;;;;;;128.07;82.75;;;;;;;20.25;nan;99357.25;5064787;28;20555;-70
2023/12/15 08:01:23;;;;;;;120.50;81.50;;;;;;;20.46;nan;99350.41;5069327;28;20436;-74
2023/12/15 08:03:53;;;;;;;123.20;83.97;;;;;;;20.42;nan;99349.25;5054694;28;20472;-71
2023/12/15 08:06:21;;;;;;;123.40;87.65;;;;;;;20.29;nan;99341.44;5056942;28;20053;-72
2023/12/15 08:08:52;;;;;;;124.43;86.68;;;;;;;20.10;nan;99330.84;5060028;28;20141;-72
2023/12/15 08:11:22;;;;;;;130.60;88.93;;;;;;;20.45;nan;99321.84;5059108;28;20127;-71
2023/12/15 08:13:51;;;;;;;134.63;89.65;;;;;;;20.46;nan;99320.78;5066001;28;20037;-72
2023/12/15 08:16:21;;;;;;;126.68;87.93;;;;;;;20.35;nan;99310.91;5065257;28;20370;-71
2023/12/15 08:18:50;;;;;;;129.18;84.28;;;;;;;20.44;nan;99310.28;5057313;28;20048;-71
2023/12/15 08:21:19;;;;;;;116.53;78.80;;;;;;;20.39;nan;99304.81;5065181;28;20761;-71
2023/12/15 08:23:47;;;;;;;112.65;77.63;;;;;;;20.48;nan;99306.06;5065473;28;20051;-72
2023/12/15 08:26:21;;;;;;;115.30;73.97;;;;;;;20.07;nan;99295.56;5061173;28;20055;-72
2023/12/15 08:28:50;;;;;;;123.15;76.90;;;;;;;20.28;nan;99294.88;5046035;28;20048;-73
2023/12/15 08:31:19;;;;;;;101.38;68.05;;;;;;;20.24;nan;99287.53;5035278;28;20069;-72
2023/12/15 08:33:48;;;;;;;95.78;67.50;;;;;;;20.35;nan;99279.44;5045021;28;20107;-71
2023/12/15 08:36:17;;;;;;;93.35;61.70;;;;;;;20.35;nan;99274.06;5041508;28;20049;-71
2023/12/15 08:38:46;;;;;;;90.13;59.20;;;;;;;20.12;nan;99268.75;5050021;28;20072;-72
2023/12/15 08:41:15;;;;;;;101.03;63.05;;;;;;;20.32;nan;99262.94;5061063;28;20052;-73
2023/12/15 08:43:44;;;;;;;89.05;64.30;;;;;;;20.33;nan;99257.34;5065501;28;20183;-74
2023/12/15 08:46:13;;;;;;;90.82;63.55;;;;;;;20.23;nan;99250.91;5071256;28;20044;-73
2023/12/15 08:48:42;;;;;;;99.30;63.40;;;;;;;20.27;nan;99255.56;5070961;28;20159;-73
2023/12/15 08:51:11;;;;;;;104.10;64.13;;;;;;;20.39;nan;99242.13;5070343;28;20059;-74
2023/12/15 08:53:40;;;;;;;92.35;61.95;;;;;;;20.27;nan;99247.50;5074851;28;20144;-72
2023/12/15 08:56:09;;;;;;;101.10;66.10;;;;;;;20.26;nan;99242.38;5063323;28;20041;-75
2023/12/15 08:58:38;;;;;;;77.05;53.08;;;;;;;20.00;nan;99239.22;5053448;28;20044;-75
2023/12/15 09:01:07;;;;;;;88.07;55.88;;;;;;;19.93;nan;99248.47;5060508;28;20044;-74
2023/12/15 09:03:36;;;;;;;87.47;61.03;;;;;;;20.00;nan;99249.97;5073413;28;20056;-76
2023/12/15 09:06:10;;;;;;;98.63;62.53;;;;;;;19.94;nan;99239.38;5061500;28;20040;-74
2023/12/15 09:08:42;;;;;;;97.13;65.07;;;;;;;19.89;nan;99232.03;5061179;28;20121;-74
2023/12/15 09:11:11;;;;;;;107.68;68.32;;;;;;;19.80;nan;99235.31;5087438;28;20141;-74
2023/12/15 09:13:40;;;;;;;107.00;65.28;;;;;;;19.86;nan;99231.69;5067618;28;20035;-76
2023/12/15 09:16:10;;;;;;;103.45;65.72;;;;;;;19.91;nan;99229.91;5065855;28;20562;-75
2023/12/15 09:18:39;;;;;;;98.93;65.50;;;;;;;19.94;nan;99234.00;5070160;28;20144;-75
2023/12/15 09:21:08;;;;;;;95.85;63.97;;;;;;;19.94;nan;99225.91;5075810;28;20064;-75
2023/12/15 09:23:37;;;;;;;103.15;66.13;;;;;;;19.87;nan;99225.25;5067133;28;20045;-75
2023/12/15 09:26:06;;;;;;;93.32;62.20;;;;;;;19.73;nan;99230.09;5062792;28;20071;-75
2023/12/15 09:28:35;;;;;;;94.05;61.08;;;;;;;19.74;nan;99220.97;5069231;28;20058;-75
2023/12/15 09:31:04;;;;;;;88.47;57.78;;;;;;;19.86;nan;99227.13;5060689;28;20143;-74
2023/12/15 09:33:33;;;;;;;82.15;55.72;;;;;;;19.83;nan;99226.75;5064201;28;20056;-75
2023/12/15 09:36:03;;;;;;;91.20;56.95;;;;;;;19.82;nan;99227.84;5062086;28;20062;-74
2023/12/15 09:38:32;;;;;;;85.57;56.78;;;;;;;19.79;nan;99217.56;5069884;28;20059;-76
2023/12/15 09:41:01;;;;;;;83.18;55.55;;;;;;;19.81;nan;99223.53;5065750;28;20427;-76
2023/12/15 09:43:29;;;;;;;88.18;56.13;;;;;;;19.86;nan;99219.06;5058189;28;20103;-74
2023/12/15 09:45:59;;;;;;;85.45;54.67;;;;;;;19.82;nan;99211.72;5061508;28;20059;-73
2023/12/15 09:48:28;;;;;;;86.00;55.97;;;;;;;19.81;nan;99213.59;5065741;28;20064;-72
2023/12/15 09:51:07;;;;;;;82.82;52.63;;;;;;;19.67;nan;99220.28;5071396;28;20700;-76
2023/12/15 09:53:37;;;;;;;81.63;51.33;;;;;;;19.64;nan;99216.22;5049827;28;20059;-71
2023/12/15 09:56:06;;;;;;;77.25;50.13;;;;;;;19.62;nan;99212.13;5059409;28;20052;-70
2023/12/15 09:58:36;;;;;;;78.25;50.13;;;;;;;19.64;nan;99213.53;5062209;28;20052;-71
2023/12/15 10:01:05;;;;;;;84.03;50.25;;;;;;;19.79;nan;99214.88;5060639;28;20044;-69
2023/12/15 10:03:34;;;;;;;77.68;50.90;;;;;;;19.77;nan;99200.88;5063106;28;20451;-69
2023/12/15 10:06:03;;;;;;;73.25;47.92;;;;;;;19.59;nan;99199.16;5067825;28;20059;-68
2023/12/15 10:08:44;;;;;;;71.97;47.22;;;;;;;19.58;nan;99206.41;5067249;28;20102;-70
2023/12/15 10:11:27;;;;;;;74.82;47.63;;;;;;;19.72;nan;99191.66;5064400;28;20044;-70
2023/12/15 10:13:55;;;;;;;78.47;48.88;;;;;;;19.70;nan;99191.06;5074849;28;20149;-70
2023/12/15 10:16:27;;;;;;;75.18;49.53;;;;;;;19.63;nan;99186.88;5057944;28;20048;-77
2023/12/15 10:18:56;;;;;;;75.07;47.80;;;;;;;19.52;nan;99191.22;5051686;28;20048;-73
2023/12/15 10:21:26;;;;;;;73.65;50.33;;;;;;;19.39;nan;99190.66;5048544;28;20052;-70
2023/12/15 10:23:57;;;;;;;74.78;49.15;;;;;;;19.47;nan;99188.44;5062698;28;20874;-75
2023/12/15 10:26:29;;;;;;;73.63;51.03;;;;;;;19.35;nan;99184.94;5065159;28;20474;-70
2023/12/15 10:28:58;;;;;;;72.15;49.97;;;;;;;19.26;nan;99186.34;5064504;28;20056;-72
2023/12/15 10:31:27;;;;;;;80.72;52.13;;;;;;;19.22;nan;99182.53;5061163;28;20779;-72
2023/12/15 10:33:56;;;;;;;74.90;50.97;;;;;;;19.19;nan;99185.69;5066020;28;20062;-72
2023/12/15 10:36:26;;;;;;;78.35;51.47;;;;;;;19.10;nan;99179.88;5047027;28;20368;-73
2023/12/15 10:38:55;;;;;;;77.78;51.28;;;;;;;19.05;nan;99178.94;5046897;28;20634;-72
2023/12/15 10:41:24;;;;;;;90.20;54.33;;;;;;;18.96;nan;99177.66;5044269;28;20407;-72
2023/12/15 10:43:54;;;;;;;80.10;53.05;;;;;;;18.87;nan;99181.75;5038923;28;20128;-71
2023/12/15 10:46:23;;;;;;;84.68;51.65;;;;;;;18.80;nan;99177.31;5046658;28;20052;-72
2023/12/15 10:48:53;;;;;;;78.55;51.28;;;;;;;18.68;nan;99168.44;5046801;28;20125;-71
2023/12/15 10:51:25;;;;;;;95.00;54.47;;;;;;;18.68;nan;99173.81;5042659;28;20041;-70
2023/12/15 10:53:54;;;;;;;85.40;55.88;;;;;;;18.67;nan;99163.31;5039992;28;20048;-73
2023/12/15 10:56:26;;;;;;;83.65;54.75;;;;;;;18.56;nan;99156.91;5042616;28;20785;-73
2023/12/15 10:58:55;;;;;;;82.93;52.88;;;;;;;18.48;nan;99149.16;5047747;28;20253;-73
2023/12/15 11:01:24;;;;;;;93.45;55.80;;;;;;;18.48;nan;99153.72;5041779;28;20127;-73
2023/12/15 11:03:53;;;;;;;82.88;55.17;;;;;;;18.35;nan;99162.78;5049709;28;20143;-73
2023/12/15 11:06:32;;;;;;;88.35;53.88;;;;;;;18.16;nan;99154.00;5042255;28;20053;-73
2023/12/15 11:09:07;;;;;;;85.45;55.85;;;;;;;18.11;nan;99147.69;5049320;28;20345;-71
2023/12/15 11:11:36;;;;;;;85.10;55.80;;;;;;;18.04;nan;99147.00;5053802;28;20052;-74
2023/12/15 11:14:05;;;;;;;80.57;55.80;;;;;;;17.95;nan;99141.97;5048820;28;20041;-74
2023/12/15 11:16:38;;;;;;;82.10;53.85;;;;;;;17.86;nan;99140.66;5053158;28;20041;-75
2023/12/15 11:19:10;;;;;;;77.38;52.08;;;;;;;17.77;nan;99142.03;5046830;28;20066;-73
2023/12/15 11:21:40;;;;;;;90.05;54.92;;;;;;;17.67;nan;99135.56;5052660;28;20086;-73
2023/12/15 11:24:09;;;;;;;90.70;54.58;;;;;;;17.62;nan;99130.91;5051794;28;20052;-73
2023/12/15 11:26:46;;;;;;;90.95;55.10;;;;;;;17.52;nan;99125.25;5058593;28;20048;-73
2023/12/15 11:29:15;;;;;;;96.40;55.88;;;;;;;17.45;nan;99127.19;5054643;28;20091;-73
2023/12/15 11:31:44;;;;;;;93.75;58.08;;;;;;;17.39;nan;99122.75;5051089;28;20041;-72
2023/12/15 11:34:40;;;;;;;93.63;57.80;;;;;;;17.30;nan;99119.56;5053537;28;20062;-72
2023/12/15 11:37:11;;;;;;;94.35;58.00;;;;;;;17.22;nan;99121.72;5053075;28;20638;-73